createdAt,value
2023-04-30T00:02:15.982Z,7.20
2023-04-30T00:04:45.040Z,7.20
2023-04-30T00:07:14.486Z,7.30
2023-04-30T00:09:43.282Z,7.20
2023-04-30T00:12:14.698Z,7.20
2023-04-30T00:14:43.186Z,7.30
2023-04-30T00:17:13.112Z,7.10
2023-04-30T00:19:41.837Z,7.10
2023-04-30T00:22:10.584Z,7.10
2023-04-30T00:24:38.826Z,7.00
2023-04-30T00:27:07.068Z,7.00
2023-04-30T00:29:35.415Z,7.10
2023-04-30T00:32:05.215Z,7.10
2023-04-30T00:34:34.959Z,7.10
2023-04-30T00:37:03.712Z,7.20
2023-04-30T00:39:31.956Z,7.10
2023-04-30T00:42:00.190Z,7.20
2023-04-30T00:44:28.508Z,7.30
2023-04-30T00:46:56.897Z,7.20
2023-04-30T00:49:25.344Z,7.20
2023-04-30T00:51:56.190Z,7.30
2023-04-30T00:54:25.542Z,7.10
2023-04-30T00:56:54.166Z,6.90
2023-04-30T00:59:22.727Z,6.90
2023-04-30T01:01:51.494Z,6.80
2023-04-30T01:04:19.990Z,6.70
2023-04-30T01:06:48.388Z,6.60
2023-04-30T01:09:18.419Z,6.70
2023-04-30T01:11:57.938Z,6.70
2023-04-30T01:14:40.195Z,6.60
2023-04-30T01:17:15.361Z,6.80
2023-04-30T01:19:47.115Z,6.80
2023-04-30T01:22:29.172Z,6.70
2023-04-30T01:25:33.207Z,6.80
2023-04-30T01:28:09.710Z,6.80
2023-04-30T01:30:40.837Z,6.70
2023-04-30T01:33:09.599Z,6.60
2023-04-30T01:36:10.796Z,6.60
2023-04-30T01:38:57.118Z,6.70
2023-04-30T01:41:34.275Z,6.70
2023-04-30T01:44:18.474Z,6.60
2023-04-30T01:46:57.164Z,6.70
2023-04-30T01:49:33.982Z,6.60
2023-04-30T01:52:10.624Z,6.60
2023-04-30T01:54:46.281Z,6.60
2023-04-30T01:57:22.627Z,6.50
2023-04-30T01:59:52.704Z,6.40
2023-04-30T02:02:21.097Z,6.50
2023-04-30T02:04:49.208Z,6.60
2023-04-30T02:07:33.074Z,6.50
2023-04-30T02:10:01.143Z,6.50
2023-04-30T02:12:30.164Z,6.40
2023-04-30T02:14:59.608Z,6.30
2023-04-30T02:17:27.873Z,6.20
2023-04-30T02:19:56.102Z,6.30
2023-04-30T02:22:24.591Z,6.40
2023-04-30T02:24:53.669Z,6.40
2023-04-30T02:27:21.965Z,6.50
2023-04-30T02:29:50.269Z,6.60
2023-04-30T02:32:19.872Z,6.40
2023-04-30T02:34:47.987Z,6.50
2023-04-30T02:37:16.319Z,6.40
2023-04-30T02:39:44.725Z,6.40
2023-04-30T02:42:12.828Z,6.30
2023-04-30T02:44:41.115Z,6.30
2023-04-30T02:47:09.151Z,6.30
2023-04-30T02:49:38.772Z,6.30
2023-04-30T02:52:09.485Z,6.30
2023-04-30T02:54:37.873Z,6.10
2023-04-30T02:57:08.838Z,5.90
2023-04-30T02:59:37.558Z,5.80
2023-04-30T03:02:05.759Z,5.80
2023-04-30T03:04:35.986Z,5.80
2023-04-30T03:07:06.839Z,5.70
2023-04-30T03:09:36.139Z,5.60
2023-04-30T03:12:04.363Z,5.50
2023-04-30T03:14:32.439Z,5.40
2023-04-30T03:17:00.599Z,5.40
2023-04-30T03:19:29.680Z,5.50
2023-04-30T03:21:57.733Z,5.40
2023-04-30T03:24:27.148Z,5.40
2023-04-30T03:26:55.203Z,5.40
2023-04-30T03:29:24.346Z,5.50
2023-04-30T03:31:52.959Z,5.60
2023-04-30T03:34:21.376Z,5.70
2023-04-30T03:36:49.518Z,5.60
2023-04-30T03:39:17.748Z,5.80
2023-04-30T03:41:47.388Z,5.60
2023-04-30T03:44:16.193Z,5.60
2023-04-30T03:46:44.509Z,5.70
2023-04-30T03:49:12.972Z,5.60
2023-04-30T03:51:42.296Z,5.70
2023-04-30T03:54:10.583Z,5.80
2023-04-30T03:56:39.209Z,5.70
2023-04-30T03:59:09.294Z,5.70
2023-04-30T04:01:37.576Z,5.80
2023-04-30T04:04:05.949Z,5.80
2023-04-30T04:06:34.858Z,5.70
2023-04-30T04:09:06.013Z,5.60
2023-04-30T04:11:34.253Z,5.70
2023-04-30T04:14:03.391Z,6.00
2023-04-30T04:16:35.122Z,6.00
2023-04-30T04:19:04.466Z,6.00
2023-04-30T04:21:35.170Z,6.00
2023-04-30T04:24:08.693Z,5.80
2023-04-30T04:26:37.406Z,5.80
2023-04-30T04:29:05.936Z,6.00
2023-04-30T04:31:35.464Z,6.00
2023-04-30T04:34:05.334Z,6.00
2023-04-30T04:36:34.273Z,6.10
2023-04-30T04:39:05.630Z,6.00
2023-04-30T04:41:37.090Z,6.00
2023-04-30T04:44:05.605Z,6.00
2023-04-30T04:46:38.613Z,6.10
2023-04-30T04:49:06.960Z,6.10
2023-04-30T04:51:35.293Z,6.30
2023-04-30T04:54:31.283Z,6.50
2023-04-30T04:56:59.445Z,6.30
2023-04-30T04:59:30.757Z,6.50
2023-04-30T05:02:00.643Z,6.70
2023-04-30T05:04:30.126Z,6.70
2023-04-30T05:07:02.173Z,6.70
2023-04-30T05:09:30.869Z,6.70
2023-04-30T05:11:59.173Z,6.80
2023-04-30T05:14:27.234Z,6.90
2023-04-30T05:16:55.544Z,7.00
2023-04-30T05:19:25.184Z,7.00
2023-04-30T05:21:53.453Z,7.00
2023-04-30T05:24:21.685Z,7.10
2023-04-30T05:26:49.784Z,7.10
2023-04-30T05:29:18.243Z,7.40
2023-04-30T05:31:46.498Z,7.60
2023-04-30T05:34:14.590Z,7.80
2023-04-30T05:36:44.613Z,8.00
2023-04-30T05:39:12.748Z,8.10
2023-04-30T05:41:40.830Z,8.30
2023-04-30T05:44:08.922Z,8.30
2023-04-30T05:46:37.139Z,8.40
2023-04-30T05:49:05.273Z,8.50
2023-04-30T05:51:35.497Z,8.80
2023-04-30T05:54:05.091Z,8.90
2023-04-30T05:56:33.315Z,9.10
2023-04-30T05:59:01.867Z,9.20
2023-04-30T06:01:30.130Z,9.40
2023-04-30T06:03:58.628Z,9.60
2023-04-30T06:06:27.140Z,9.70
2023-04-30T06:08:55.412Z,9.90
2023-04-30T06:11:26.552Z,10.10
2023-04-30T06:13:54.874Z,10.20
2023-04-30T06:16:23.205Z,10.40
2023-04-30T06:18:52.980Z,10.70
2023-04-30T06:21:26.017Z,10.70
2023-04-30T06:23:54.369Z,10.80
2023-04-30T06:26:25.001Z,10.90
2023-04-30T06:28:53.101Z,11.30
2023-04-30T06:31:21.378Z,11.40
2023-04-30T06:33:50.241Z,11.40
2023-04-30T06:36:19.523Z,11.50
2023-04-30T06:38:50.835Z,11.70
2023-04-30T06:41:19.404Z,11.80
2023-04-30T06:43:48.939Z,12.10
2023-04-30T06:46:17.459Z,12.30
2023-04-30T06:48:45.667Z,12.40
2023-04-30T06:51:14.004Z,12.20
2023-04-30T06:53:42.590Z,12.20
2023-04-30T06:56:10.933Z,12.40
2023-04-30T06:58:41.001Z,12.60
2023-04-30T07:01:11.403Z,12.90
2023-04-30T07:03:39.678Z,12.80
2023-04-30T07:06:08.055Z,13.00
2023-04-30T07:08:36.617Z,13.20
2023-04-30T07:11:04.987Z,13.10
2023-04-30T07:13:33.384Z,12.90
2023-04-30T07:16:01.890Z,12.80
2023-04-30T07:18:31.617Z,12.70
2023-04-30T07:20:59.836Z,12.60
2023-04-30T07:23:30.449Z,12.40
2023-04-30T07:25:58.886Z,12.30
2023-04-30T07:28:27.144Z,12.20
2023-04-30T07:30:55.236Z,12.00
2023-04-30T07:33:23.386Z,12.10
2023-04-30T07:35:53.296Z,12.50
2023-04-30T07:38:21.756Z,12.80
2023-04-30T07:40:50.495Z,12.40
2023-04-30T07:43:18.987Z,12.40
2023-04-30T07:45:49.407Z,12.20
2023-04-30T07:48:18.020Z,11.90
2023-04-30T07:50:50.659Z,11.60
2023-04-30T07:53:21.803Z,11.70
2023-04-30T07:55:50.549Z,12.20
2023-04-30T07:58:19.027Z,12.60
2023-04-30T08:00:47.852Z,12.20
2023-04-30T08:03:16.264Z,12.00
2023-04-30T08:05:44.828Z,12.70
2023-04-30T08:08:17.235Z,13.30
2023-04-30T08:10:47.041Z,14.10
2023-04-30T08:13:15.214Z,14.70
2023-04-30T08:15:43.852Z,14.60
2023-04-30T08:18:12.046Z,14.40
2023-04-30T08:20:40.888Z,14.00
2023-04-30T08:23:09.031Z,13.90
2023-04-30T08:25:37.490Z,14.10
2023-04-30T08:28:08.264Z,13.70
2023-04-30T08:30:36.473Z,13.20
2023-04-30T08:33:08.405Z,12.80
2023-04-30T08:35:36.548Z,12.70
2023-04-30T08:38:06.299Z,13.30
2023-04-30T08:40:51.152Z,14.10
2023-04-30T08:43:22.534Z,14.80
2023-04-30T08:45:53.112Z,15.40
2023-04-30T08:48:24.884Z,15.80
2023-04-30T08:50:53.751Z,16.10
2023-04-30T08:53:23.077Z,15.60
2023-04-30T08:55:54.388Z,15.40
2023-04-30T08:58:24.013Z,15.40
2023-04-30T09:00:53.563Z,15.70
2023-04-30T09:03:23.737Z,16.20
2023-04-30T09:05:52.235Z,16.70
2023-04-30T09:08:45.056Z,16.30
2023-04-30T09:11:24.235Z,16.10
2023-04-30T09:13:57.520Z,16.20
2023-04-30T09:16:47.034Z,16.90
2023-04-30T09:19:25.646Z,17.60
2023-04-30T09:21:57.413Z,17.80
2023-04-30T09:24:25.907Z,17.70
2023-04-30T09:26:55.350Z,18.20
2023-04-30T09:29:38.462Z,17.90
2023-04-30T09:32:10.264Z,18.60
2023-04-30T09:34:38.424Z,18.80
2023-04-30T09:37:07.503Z,19.00
2023-04-30T09:39:35.804Z,18.70
2023-04-30T09:42:10.812Z,18.70
2023-04-30T09:44:43.423Z,18.50
2023-04-30T09:47:17.157Z,18.20
2023-04-30T09:49:45.900Z,18.00
2023-04-30T09:52:16.610Z,17.60
2023-04-30T09:54:46.874Z,17.00
2023-04-30T09:57:17.072Z,17.40
2023-04-30T09:59:48.183Z,17.40
2023-04-30T10:02:18.279Z,17.70
2023-04-30T10:04:50.054Z,18.70
2023-04-30T10:07:22.188Z,19.20
2023-04-30T10:09:53.826Z,19.20
2023-04-30T10:12:25.558Z,19.00
2023-04-30T10:14:59.448Z,18.70
2023-04-30T10:17:31.851Z,18.60
2023-04-30T10:20:05.784Z,18.00
2023-04-30T10:22:36.385Z,17.80
2023-04-30T10:25:05.102Z,18.50
2023-04-30T10:27:34.155Z,19.50
2023-04-30T10:30:04.245Z,19.90
2023-04-30T10:32:39.981Z,20.30
2023-04-30T10:35:17.443Z,19.80
2023-04-30T10:37:52.269Z,18.60
2023-04-30T10:40:20.566Z,18.30
2023-04-30T10:42:49.963Z,18.00
2023-04-30T10:45:20.754Z,18.70
2023-04-30T10:47:48.886Z,19.30
2023-04-30T10:50:17.353Z,19.50
2023-04-30T10:52:45.725Z,19.20
2023-04-30T10:55:18.658Z,19.00
2023-04-30T10:57:48.484Z,19.50
2023-04-30T11:00:25.610Z,19.90
2023-04-30T11:02:58.464Z,20.00
2023-04-30T11:05:37.540Z,19.80
2023-04-30T11:08:06.272Z,19.70
2023-04-30T11:10:35.580Z,19.10
2023-04-30T11:13:10.290Z,19.20
2023-04-30T11:15:46.067Z,19.40
2023-04-30T11:18:14.941Z,19.60
2023-04-30T11:20:50.173Z,20.00
2023-04-30T11:23:28.187Z,20.20
2023-04-30T11:26:02.635Z,20.80
2023-04-30T11:28:34.725Z,21.00
2023-04-30T11:31:04.838Z,21.20
2023-04-30T11:33:34.864Z,20.70
2023-04-30T11:36:03.396Z,19.10
2023-04-30T11:38:36.866Z,18.70
2023-04-30T11:41:05.861Z,18.80
2023-04-30T11:43:35.488Z,19.70
2023-04-30T11:46:10.938Z,19.70
2023-04-30T11:48:40.551Z,20.10
2023-04-30T11:51:17.062Z,20.50
2023-04-30T11:53:47.194Z,20.60
2023-04-30T11:56:15.342Z,20.50
2023-04-30T11:58:43.407Z,20.20
2023-04-30T12:01:16.021Z,20.10
2023-04-30T12:03:45.677Z,19.60
2023-04-30T12:06:22.596Z,19.50
2023-04-30T12:08:51.185Z,19.10
2023-04-30T12:11:25.233Z,18.70
2023-04-30T12:13:55.044Z,18.30
2023-04-30T12:16:26.013Z,18.20
2023-04-30T12:18:54.211Z,17.70
2023-04-30T12:21:24.522Z,17.70
2023-04-30T12:23:52.690Z,17.80
2023-04-30T12:26:21.015Z,17.90
2023-04-30T12:28:50.996Z,17.50
2023-04-30T12:31:19.611Z,17.40
2023-04-30T12:33:58.055Z,17.20
2023-04-30T12:36:32.740Z,16.90
2023-04-30T12:39:18.651Z,16.90
2023-04-30T12:41:48.874Z,16.80
2023-04-30T12:44:21.153Z,17.00
2023-04-30T12:46:50.512Z,16.80
2023-04-30T12:49:28.017Z,16.90
2023-04-30T12:52:04.779Z,16.80
2023-04-30T12:54:33.668Z,16.80
2023-04-30T12:57:03.457Z,16.60
2023-04-30T12:59:32.906Z,16.60
2023-04-30T13:02:11.552Z,16.50
2023-04-30T13:04:42.092Z,16.60
2023-04-30T13:07:10.355Z,16.40
2023-04-30T13:09:39.367Z,16.40
2023-04-30T13:12:07.607Z,16.10
2023-04-30T13:14:36.324Z,16.00
2023-04-30T13:17:06.978Z,16.10
2023-04-30T13:19:35.201Z,16.10
2023-04-30T13:22:04.764Z,16.10
2023-04-30T13:24:32.880Z,16.30
2023-04-30T13:27:02.636Z,16.40
2023-04-30T13:29:31.535Z,16.70
2023-04-30T13:31:59.630Z,16.70
2023-04-30T13:34:27.798Z,16.50
2023-04-30T13:36:56.177Z,16.30
2023-04-30T13:39:25.872Z,16.00
2023-04-30T13:41:54.050Z,16.10
2023-04-30T13:44:22.779Z,15.90
2023-04-30T13:46:50.943Z,16.00
2023-04-30T13:49:19.081Z,15.80
2023-04-30T13:51:47.198Z,15.80
2023-04-30T13:54:15.334Z,15.70
2023-04-30T13:56:45.045Z,15.30
2023-04-30T13:59:13.160Z,15.30
2023-04-30T14:01:43.410Z,15.50
2023-04-30T14:04:11.640Z,15.50
2023-04-30T14:06:39.863Z,15.40
2023-04-30T14:09:08.014Z,15.50
2023-04-30T14:11:38.720Z,15.50
2023-04-30T14:14:09.654Z,15.50
2023-04-30T14:16:37.830Z,15.40
2023-04-30T14:19:06.027Z,15.40
2023-04-30T14:21:34.282Z,15.50
2023-04-30T14:24:02.310Z,15.40
2023-04-30T14:26:30.495Z,15.20
2023-04-30T14:28:58.790Z,15.10
2023-04-30T14:31:28.242Z,14.90
2023-04-30T14:33:56.796Z,14.90
2023-04-30T14:36:25.007Z,14.80
2023-04-30T14:38:53.058Z,14.80
2023-04-30T14:41:21.254Z,14.90
2023-04-30T14:43:49.603Z,14.80
2023-04-30T14:46:17.902Z,14.80
2023-04-30T14:48:47.332Z,14.90
2023-04-30T14:51:15.419Z,14.80
2023-04-30T14:53:43.474Z,15.00
2023-04-30T14:56:11.591Z,14.90
2023-04-30T14:58:39.815Z,14.80
2023-04-30T15:01:08.001Z,14.80
2023-04-30T15:03:36.293Z,14.60
2023-04-30T15:06:05.979Z,14.60
2023-04-30T15:08:34.056Z,14.60
2023-04-30T15:11:03.759Z,14.50
2023-04-30T15:13:31.822Z,14.50
2023-04-30T15:15:59.886Z,14.40
2023-04-30T15:18:28.101Z,14.30
2023-04-30T15:20:56.247Z,14.30
2023-04-30T15:23:25.751Z,14.20
2023-04-30T15:25:53.867Z,14.20
2023-04-30T15:28:24.397Z,14.30
2023-04-30T15:30:52.836Z,14.20
2023-04-30T15:33:21.102Z,14.20
2023-04-30T15:35:49.456Z,14.20
2023-04-30T15:38:17.517Z,14.10
2023-04-30T15:40:48.748Z,14.10
2023-04-30T15:43:17.900Z,14.10
2023-04-30T15:45:48.263Z,14.20
2023-04-30T15:48:18.020Z,14.20
2023-04-30T15:50:46.257Z,14.10
2023-04-30T15:53:14.378Z,14.10
2023-04-30T15:55:42.754Z,14.10
2023-04-30T15:58:13.055Z,14.10
2023-04-30T16:00:41.334Z,14.00
2023-04-30T16:03:10.139Z,14.00
2023-04-30T16:05:40.409Z,13.90
2023-04-30T16:08:10.221Z,13.80
2023-04-30T16:10:39.135Z,13.80
2023-04-30T16:13:07.225Z,13.80
2023-04-30T16:15:36.659Z,13.80
2023-04-30T16:18:04.805Z,13.80
2023-04-30T16:20:33.131Z,13.80
2023-04-30T16:23:01.408Z,13.90
2023-04-30T16:25:30.495Z,14.00
2023-04-30T16:27:58.593Z,13.90
2023-04-30T16:30:26.715Z,13.90
2023-04-30T16:32:56.232Z,13.80
2023-04-30T16:35:24.455Z,13.80
2023-04-30T16:37:52.964Z,13.70
2023-04-30T16:40:21.440Z,13.60
2023-04-30T16:42:50.178Z,13.60
2023-04-30T16:45:20.378Z,13.50
2023-04-30T16:47:49.493Z,13.50
2023-04-30T16:50:19.261Z,13.40
2023-04-30T16:52:47.391Z,13.30
2023-04-30T16:55:15.609Z,13.20
2023-04-30T16:57:43.773Z,13.20
2023-04-30T17:00:14.290Z,13.10
2023-04-30T17:02:45.397Z,13.10
2023-04-30T17:05:14.033Z,13.20
2023-04-30T17:07:44.546Z,13.20
2023-04-30T17:10:14.395Z,13.20
2023-04-30T17:12:43.332Z,13.20
2023-04-30T17:15:11.886Z,13.20
2023-04-30T17:17:39.949Z,13.20
2023-04-30T17:20:08.893Z,13.00
2023-04-30T17:22:38.277Z,12.90
2023-04-30T17:25:08.453Z,12.90
2023-04-30T17:27:37.522Z,12.80
2023-04-30T17:30:06.668Z,12.80
2023-04-30T17:32:34.855Z,12.80
2023-04-30T17:35:03.576Z,12.80
2023-04-30T17:37:35.341Z,12.70
2023-04-30T17:40:05.368Z,12.70
2023-04-30T17:42:35.252Z,12.70
2023-04-30T17:45:03.677Z,12.70
2023-04-30T17:47:33.914Z,12.60
2023-04-30T17:50:04.809Z,12.60
2023-04-30T17:52:38.266Z,12.50
2023-04-30T17:55:08.347Z,12.50
2023-04-30T17:57:38.124Z,12.40
2023-04-30T18:00:07.456Z,12.40
2023-04-30T18:02:41.825Z,12.40
2023-04-30T18:05:11.778Z,12.30
2023-04-30T18:07:39.937Z,12.30
2023-04-30T18:10:09.438Z,12.30
2023-04-30T18:12:39.056Z,12.30
2023-04-30T18:15:08.614Z,12.20
2023-04-30T18:17:37.639Z,12.20
2023-04-30T18:20:08.292Z,12.10
2023-04-30T18:22:42.349Z,12.10
2023-04-30T18:25:11.242Z,12.00
2023-04-30T18:27:41.079Z,12.00
2023-04-30T18:30:09.818Z,11.90
2023-04-30T18:32:38.323Z,11.80
2023-04-30T18:35:07.166Z,11.70
2023-04-30T18:37:35.419Z,11.70
2023-04-30T18:40:06.961Z,11.60
2023-04-30T18:42:35.040Z,11.60
2023-04-30T18:45:04.719Z,11.70
2023-04-30T18:47:33.630Z,11.70
2023-04-30T18:50:02.048Z,11.80
2023-04-30T18:52:30.478Z,11.70
2023-04-30T18:54:58.679Z,11.60
2023-04-30T18:57:27.027Z,11.60
2023-04-30T18:59:55.959Z,11.50
2023-04-30T19:02:25.745Z,11.50
2023-04-30T19:04:55.709Z,11.40
2023-04-30T19:07:23.824Z,11.40
2023-04-30T19:09:53.548Z,11.30
2023-04-30T19:12:21.921Z,11.20
2023-04-30T19:14:50.314Z,11.30
2023-04-30T19:17:20.900Z,11.20
2023-04-30T19:19:51.212Z,11.10
2023-04-30T19:22:19.271Z,11.00
2023-04-30T19:24:47.429Z,10.90
2023-04-30T19:27:15.668Z,10.90
2023-04-30T19:29:43.873Z,10.90
2023-04-30T19:32:12.152Z,10.80
2023-04-30T19:34:40.613Z,10.80
2023-04-30T19:37:10.056Z,10.80
2023-04-30T19:39:38.347Z,10.70
2023-04-30T19:42:06.718Z,10.60
2023-04-30T19:44:34.866Z,10.60
2023-04-30T19:47:03.528Z,10.70
2023-04-30T19:49:33.045Z,10.80
2023-04-30T19:52:01.716Z,10.70
2023-04-30T19:54:31.301Z,10.50
2023-04-30T19:56:59.505Z,10.60
2023-04-30T19:59:27.761Z,10.50
2023-04-30T20:01:55.922Z,10.40
2023-04-30T20:04:26.422Z,10.50
2023-04-30T20:06:57.205Z,10.50
2023-04-30T20:09:25.903Z,10.50
2023-04-30T20:11:55.997Z,10.40
2023-04-30T20:14:24.328Z,10.30
2023-04-30T20:16:54.461Z,10.20
2023-04-30T20:19:23.324Z,10.20
2023-04-30T20:21:51.935Z,10.20
2023-04-30T20:24:21.657Z,10.10
2023-04-30T20:26:49.828Z,10.10
2023-04-30T20:29:20.646Z,10.00
2023-04-30T20:31:48.945Z,10.00
2023-04-30T20:34:17.279Z,9.90
2023-04-30T20:36:45.889Z,9.90
2023-04-30T20:39:14.576Z,9.80
2023-04-30T20:41:43.686Z,9.80
2023-04-30T20:44:11.794Z,9.70
2023-04-30T20:46:42.645Z,9.70
2023-04-30T20:49:11.842Z,9.60
2023-04-30T20:51:40.128Z,9.60
2023-04-30T20:54:08.701Z,9.60
2023-04-30T20:56:36.811Z,9.60
2023-04-30T20:59:05.906Z,9.60
2023-04-30T21:01:34.312Z,9.50
2023-04-30T21:04:04.652Z,9.50
2023-04-30T21:06:33.496Z,9.50
2023-04-30T21:09:04.169Z,9.40
2023-04-30T21:11:33.784Z,9.40
2023-04-30T21:14:05.101Z,9.30
2023-04-30T21:16:33.608Z,9.40
2023-04-30T21:19:03.545Z,9.30
2023-04-30T21:21:31.728Z,9.30
2023-04-30T21:24:01.103Z,9.20
2023-04-30T21:26:29.417Z,9.20
2023-04-30T21:28:57.518Z,9.20
2023-04-30T21:31:25.838Z,9.20
2023-04-30T21:33:54.109Z,9.20
2023-04-30T21:36:31.815Z,9.10
2023-04-30T21:39:00.150Z,9.10
2023-04-30T21:41:31.003Z,9.10
2023-04-30T21:44:00.257Z,9.10
2023-04-30T21:46:28.688Z,9.00
2023-04-30T21:48:56.901Z,9.10
2023-04-30T21:51:27.884Z,9.10
2023-04-30T21:53:56.167Z,9.10
2023-04-30T21:56:24.361Z,9.10
2023-04-30T21:58:52.440Z,9.10
2023-04-30T22:01:21.209Z,9.10
2023-04-30T22:03:49.333Z,9.00
2023-04-30T22:06:17.698Z,9.00
2023-04-30T22:08:47.460Z,8.90
2023-04-30T22:11:15.579Z,9.00
2023-04-30T22:13:43.689Z,9.10
2023-04-30T22:16:12.286Z,9.20
2023-04-30T22:18:40.681Z,9.30
2023-04-30T22:21:08.787Z,9.20
2023-04-30T22:23:36.965Z,9.20
2023-04-30T22:26:09.739Z,9.30
2023-04-30T22:28:38.156Z,9.20
2023-04-30T22:31:06.477Z,9.00
2023-04-30T22:33:37.722Z,9.00
2023-04-30T22:36:06.626Z,9.00
2023-04-30T22:38:35.280Z,9.00
2023-04-30T22:41:04.376Z,9.00
2023-04-30T22:43:34.147Z,9.00
2023-04-30T22:46:03.349Z,9.00
2023-04-30T22:48:31.667Z,9.00
2023-04-30T22:50:59.815Z,8.90
2023-04-30T22:53:27.925Z,8.80
2023-04-30T22:55:56.397Z,8.90
2023-04-30T22:58:24.594Z,8.80
2023-04-30T23:00:54.182Z,8.80
2023-04-30T23:03:22.415Z,8.70
2023-04-30T23:05:51.566Z,8.70
2023-04-30T23:08:20.003Z,8.80
2023-04-30T23:10:48.728Z,8.90
2023-04-30T23:13:18.336Z,8.80
2023-04-30T23:15:46.630Z,8.70
2023-04-30T23:18:16.115Z,8.80
2023-04-30T23:20:44.281Z,8.70
2023-04-30T23:23:12.463Z,8.50
2023-04-30T23:25:40.616Z,8.50
2023-04-30T23:28:08.694Z,8.60
2023-04-30T23:30:39.308Z,8.60
2023-04-30T23:33:07.461Z,8.70
2023-04-30T23:35:37.000Z,8.50
2023-04-30T23:38:05.146Z,8.60
2023-04-30T23:40:34.372Z,8.60
2023-04-30T23:43:02.597Z,8.50
2023-04-30T23:45:31.061Z,8.50
2023-04-30T23:47:59.288Z,8.60
2023-04-30T23:50:27.700Z,8.50
2023-04-30T23:52:57.312Z,8.50
2023-04-30T23:55:25.441Z,8.50
2023-04-30T23:57:54.075Z,8.40
